Accueil
METAR-TAF:

METAR-TAF

Aéroports :

Aéroport d'Olbia

Olbia, Italie

latitude: 40-54N, longitude: 009-31E, altitude: 11 m

Observation

Le bulletin a été fait il y a 16 minutes, à 14:20 UTC
Vent 6 kt de est/nord-est, variant entre nord/nord-est et est
Température 16°C
Humidité 72%
Pression 1019 hPa
Visibilité 10 km ou plus
Quelques nuages à une hauteur de 3000 ft

METAR: LIEO 261420Z 06006KT 020V090 9999 FEW030 16/11 Q1019

Heure: 15:36 (14:36 UTC)

Prévision

Le bulletin a été fait il y a 3 heures et 36 minutes, à 11:00 UTC
Prévision valable du 26 à 12 UTC au 27 à 12 UTC
Vent 8 kt de nord-est
Visibilité 10 km ou plus
Nuages épars à une hauteur de 2000 ft
Evoluant progressivement
du 26 à 16 UTC au 26 à 18 UTC
Vent 10 kt de sud-ouest

TAF: LIEO 261100Z 2612/2712 04008KT 9999 SCT020 BECMG 2616/2618 23010KT

Observations et prévisions météorologiques de plus de 4000 aéroports (messages METAR et TAF).

Les stations disponibles sont représentées par des disques jaunes et rouges sur la carte.

Passer la souris dessus pour voir le nom de la station.

Cliquer dessus pour voir les observations et prévisions météorologiques.

Pour changer de carte: cliquez sur les boutons verts avec une croix noire pour zoomer, sur le bouton vert avec un tiret pour effectuer un zoom arrière, ou sur les flèches vertes pour les cartes adjacentes.


METAR-TAF: